Terminal Aerodrome Forecast
Issued by NWS Sterling, VA

Current Version | Previous Version | Graphics & Text | Print | Product List | Glossary On
Versions: 1 2 3 4 5 6 7 8 9 10 11 12 13 14 15 16
034
FTUS41 KLWX 082332
TAFMRB
TAF
KMRB 082332Z 0900/0924 12005KT P6SM -RASN OVC090
     FM090200 12004KT 3SM -SN OVC025
     FM090500 11004KT 1SM -SN OVC012
     FM090900 07004KT 1/2SM SN OVC008
     FM091800 VRB03KT 3/4SM -SN OVC015=

USA.gov is the U.S. government's official web portal to all federal, state and local government web resources and services.